Terminal Aerodrome Forecast
Issued by NWS

Home | Current Version | Previous Version | Graphics & Text | Print | Product List | Glossary On
Versions: 1 2 3 4 5 6 7 8 9 10 11 12 13 14 15
000
FTUS42 KMHX 281720
TAFISO
TAF
KISO 281720Z 2818/0118 02011KT P6SM SCT040 BKN150
     FM010500 04006KT P6SM SCT015 BKN040
     FM010900 03004KT 4SM BR BKN015 OVC025
     FM011500 06007KT P6SM BKN025 OVC040
      AMD LTD TO CLD VIS AND WIND=

USA.gov is the U.S. government's official web portal to all federal, state and local government web resources and services.